Time,TemperatureF,DewpointF,PressureIn,WindDirection,WindDirectionDegrees,WindSpeedMPH,WindSpeedGustMPH,Humidity,HourlyPrecipIn,Conditions,Clouds,dailyrainin,SoftwareType,DateUTC
2013-04-23 00:21:00,53.0,49.0,29.95,ESE,110,1.0,-999.0,86,0.00,,,-99.99,,2013-04-23 07:21:00,
2013-04-23 00:32:00,53.0,49.0,29.95,ESE,110,1.0,-999.0,86,0.00,,,-99.99,,2013-04-23 07:32:00,
2013-04-23 00:42:00,53.0,49.0,29.95,ESE,110,1.0,-999.0,86,0.00,,,-99.99,,2013-04-23 07:42:00,
2013-04-23 00:52:00,53.0,49.0,29.95,ESE,110,1.0,-999.0,86,0.00,,,-99.99,,2013-04-23 07:52:00,
2013-04-23 01:21:00,53.0,49.0,29.94,North,0,0.0,-999.0,87,0.00,,,-99.99,,2013-04-23 08:21:00,
2013-04-23 01:31:00,53.0,49.0,29.94,North,0,0.0,-999.0,87,0.00,,,-99.99,,2013-04-23 08:31:00,
2013-04-23 01:42:00,53.0,49.0,29.94,North,0,0.0,-999.0,87,0.00,,,-99.99,,2013-04-23 08:42:00,
2013-04-23 01:52:00,53.0,49.0,29.94,North,0,0.0,-999.0,87,0.00,,,-99.99,,2013-04-23 08:52:00,
2013-04-23 02:21:00,53.0,49.0,29.93,SE,140,1.0,-999.0,86,0.00,,,-99.99,,2013-04-23 09:21:00,
2013-04-23 02:32:00,53.0,49.0,29.93,SE,140,1.0,-999.0,86,0.00,,,-99.99,,2013-04-23 09:32:00,
2013-04-23 02:42:00,53.0,49.0,29.93,SE,140,1.0,-999.0,86,0.00,,,-99.99,,2013-04-23 09:42:00,
2013-04-23 02:52:00,53.0,49.0,29.93,SE,140,1.0,-999.0,86,0.00,,,-99.99,,2013-04-23 09:52:00,
2013-04-23 03:22:00,53.0,49.0,29.91,North,0,0.0,-999.0,87,0.00,,,-99.99,,2013-04-23 10:22:00,
2013-04-23 03:32:00,53.0,49.0,29.91,North,0,0.0,-999.0,87,0.00,,,-99.99,,2013-04-23 10:32:00,
2013-04-23 03:42:00,53.0,49.0,29.91,North,0,0.0,-999.0,87,0.00,,,-99.99,,2013-04-23 10:42:00,
2013-04-23 03:52:00,53.0,49.0,29.91,North,0,0.0,-999.0,87,0.00,,,-99.99,,2013-04-23 10:52:00,
2013-04-23 04:21:00,53.0,49.0,29.90,North,0,0.0,-999.0,87,0.00,,,-99.99,,2013-04-23 11:21:00,
2013-04-23 04:32:00,53.0,49.0,29.90,North,0,0.0,-999.0,87,0.00,,,-99.99,,2013-04-23 11:32:00,
2013-04-23 04:42:00,53.0,49.0,29.90,North,0,0.0,-999.0,87,0.00,,,-99.99,,2013-04-23 11:42:00,
2013-04-23 04:52:00,53.0,49.0,29.90,North,0,0.0,-999.0,87,0.00,,,-99.99,,2013-04-23 11:52:00,
2013-04-23 05:22:00,53.0,49.0,29.91,North,0,0.0,-999.0,87,0.00,,,-99.99,,2013-04-23 12:22:00,
2013-04-23 05:32:00,53.0,49.0,29.91,North,0,0.0,-999.0,87,0.00,,,-99.99,,2013-04-23 12:32:00,
2013-04-23 05:41:00,53.0,49.0,29.91,North,0,0.0,-999.0,87,0.00,,,-99.99,,2013-04-23 12:41:00,
2013-04-23 05:51:00,53.0,49.0,29.91,North,0,0.0,-999.0,87,0.00,,,-99.99,,2013-04-23 12:51:00,
2013-04-23 06:21:00,53.0,49.0,29.92,North,0,0.0,-999.0,86,0.00,,,-99.99,,2013-04-23 13:21:00,
2013-04-23 06:32:00,53.0,49.0,29.92,North,0,0.0,-999.0,86,0.00,,,-99.99,,2013-04-23 13:32:00,
2013-04-23 06:41:00,53.0,49.0,29.92,North,0,0.0,-999.0,86,0.00,,,-99.99,,2013-04-23 13:41:00,
2013-04-23 06:52:00,53.0,49.0,29.92,North,0,0.0,-999.0,86,0.00,,,-99.99,,2013-04-23 13:52:00,
2013-04-23 07:22:00,53.0,49.0,29.94,ESE,110,1.0,-999.0,86,0.00,,,-99.99,,2013-04-23 14:22:00,
2013-04-23 07:32:00,53.0,49.0,29.94,ESE,110,1.0,-999.0,86,0.00,,,-99.99,,2013-04-23 14:32:00,
2013-04-23 07:42:00,53.0,49.0,29.94,ESE,110,1.0,-999.0,86,0.00,,,-99.99,,2013-04-23 14:42:00,
2013-04-23 07:52:00,53.0,49.0,29.94,ESE,110,1.0,-999.0,86,0.00,,,-99.99,,2013-04-23 14:52:00,
2013-04-23 08:21:00,54.0,50.0,29.95,North,0,0.0,-999.0,85,0.00,,,-99.99,,2013-04-23 15:21:00,
2013-04-23 08:32:00,54.0,50.0,29.95,North,0,0.0,-999.0,85,0.00,,,-99.99,,2013-04-23 15:32:00,
2013-04-23 08:42:00,54.0,50.0,29.95,North,0,0.0,-999.0,85,0.00,,,-99.99,,2013-04-23 15:42:00,
2013-04-23 08:52:00,54.0,50.0,29.95,North,0,0.0,-999.0,85,0.00,,,-99.99,,2013-04-23 15:52:00,
2013-04-23 09:23:00,55.0,50.0,29.96,North,0,0.0,-999.0,82,0.00,,,-99.99,,2013-04-23 16:23:00,
2013-04-23 09:33:00,55.0,50.0,29.96,North,0,0.0,-999.0,82,0.00,,,-99.99,,2013-04-23 16:33:00,
2013-04-23 09:42:00,55.0,50.0,29.96,North,0,0.0,-999.0,82,0.00,,,-99.99,,2013-04-23 16:42:00,
2013-04-23 09:51:00,57.0,50.0,29.98,North,0,0.0,-999.0,78,0.00,,,-99.99,,2013-04-23 16:51:00,
2013-04-23 09:52:00,55.0,50.0,29.96,North,0,0.0,-999.0,82,0.00,,,-99.99,,2013-04-23 16:52:00,
2013-04-23 10:22:00,57.0,50.0,29.98,North,0,0.0,-999.0,78,0.00,,,-99.99,,2013-04-23 17:22:00,
2013-04-23 10:32:00,57.0,50.0,29.98,North,0,0.0,-999.0,78,0.00,,,-99.99,,2013-04-23 17:32:00,
2013-04-23 10:42:00,57.0,50.0,29.98,North,0,0.0,-999.0,78,0.00,,,-99.99,,2013-04-23 17:42:00,
2013-04-23 18:21:00,61.0,51.0,29.88,WSW,250,9.0,-999.0,69,0.00,,,-99.99,,2013-04-24 01:21:00,
2013-04-23 18:32:00,61.0,51.0,29.88,WSW,250,9.0,-999.0,69,0.00,,,-99.99,,2013-04-24 01:32:00,
2013-04-23 18:42:00,61.0,51.0,29.88,WSW,250,9.0,-999.0,69,0.00,,,-99.99,,2013-04-24 01:42:00,
2013-04-23 18:52:00,61.0,51.0,29.88,WSW,250,9.0,-999.0,69,0.00,,,-99.99,,2013-04-24 01:52:00,
2013-04-23 18:54:00,58.0,51.0,29.89,WNW,290,5.0,-999.0,78,0.00,,,-99.99,,2013-04-24 01:54:00,
2013-04-23 19:36:00,58.0,51.0,29.89,WNW,290,5.0,-999.0,78,0.00,,,-99.99,,2013-04-24 02:36:00,
2013-04-23 19:46:00,58.0,51.0,29.89,WNW,290,5.0,-999.0,78,0.00,,,-99.99,,2013-04-24 02:46:00,
2013-04-23 19:54:00,55.0,51.0,29.90,West,270,1.0,-999.0,85,0.00,,,-99.99,,2013-04-24 02:54:00,
2013-04-23 20:27:00,55.0,51.0,29.90,West,270,1.0,-999.0,85,0.00,,,-99.99,,2013-04-24 03:27:00,
2013-04-23 20:38:00,55.0,51.0,29.90,West,270,1.0,-999.0,85,0.00,,,-99.99,,2013-04-24 03:38:00,
2013-04-23 20:47:00,55.0,51.0,29.90,West,270,1.0,-999.0,85,0.00,,,-99.99,,2013-04-24 03:47:00,
2013-04-23 21:23:00,55.0,52.0,29.92,North,0,0.0,-999.0,88,0.00,,,-99.99,,2013-04-24 04:23:00,
2013-04-23 21:33:00,55.0,52.0,29.92,North,0,0.0,-999.0,88,0.00,,,-99.99,,2013-04-24 04:33:00,
2013-04-23 21:43:00,55.0,52.0,29.92,North,0,0.0,-999.0,88,0.00,,,-99.99,,2013-04-24 04:43:00,
2013-04-23 21:52:00,55.0,52.0,29.92,North,0,0.0,-999.0,88,0.00,,,-99.99,,2013-04-24 04:52:00,
2013-04-23 22:21:00,56.0,52.0,29.93,North,0,0.0,-999.0,87,0.00,,,-99.99,,2013-04-24 05:21:00,
2013-04-23 22:32:00,56.0,52.0,29.93,North,0,0.0,-999.0,87,0.00,,,-99.99,,2013-04-24 05:32:00,
2013-04-23 22:42:00,56.0,52.0,29.93,North,0,0.0,-999.0,87,0.00,,,-99.99,,2013-04-24 05:42:00,
2013-04-23 22:51:00,56.0,52.0,29.93,North,0,0.0,-999.0,87,0.00,,,-99.99,,2013-04-24 05:51:00,
2013-04-23 23:21:00,55.0,51.0,29.94,North,0,0.0,-999.0,87,0.00,,,-99.99,,2013-04-24 06:21:00,
2013-04-23 23:32:00,55.0,51.0,29.94,North,0,0.0,-999.0,87,0.00,,,-99.99,,2013-04-24 06:32:00,
2013-04-23 23:42:00,55.0,51.0,29.94,North,0,0.0,-999.0,87,0.00,,,-99.99,,2013-04-24 06:42:00,
2013-04-23 23:51:00,55.0,51.0,29.94,North,0,0.0,-999.0,87,0.00,,,-99.99,,2013-04-24 06:51:00,